sensor_id;sensor_type;location;lat;lon;timestamp;pressure;altitude;pressure_sealevel;temperature;humidity
550;BME280;20066;48.764;9.176;2022-07-17T00:01:04;99008.44;;;21.29;41.88
550;BME280;20066;48.764;9.176;2022-07-17T00:03:32;99000.22;;;21.29;42.20
550;BME280;20066;48.764;9.176;2022-07-17T00:06:00;99006.50;;;21.68;41.37
550;BME280;20066;48.764;9.176;2022-07-17T00:08:28;99009.59;;;21.57;41.21
550;BME280;20066;48.764;9.176;2022-07-17T00:10:58;99007.03;;;21.50;41.32
550;BME280;20066;48.764;9.176;2022-07-17T00:13:26;99001.91;;;21.90;41.14
550;BME280;20066;48.764;9.176;2022-07-17T00:15:54;99005.53;;;21.74;41.05
550;BME280;20066;48.764;9.176;2022-07-17T00:18:23;98995.34;;;21.75;40.73
550;BME280;20066;48.764;9.176;2022-07-17T00:20:51;99004.91;;;21.16;41.90
550;BME280;20066;48.764;9.176;2022-07-17T00:23:19;98997.78;;;20.77;43.76
550;BME280;20066;48.764;9.176;2022-07-17T00:25:47;98999.31;;;20.78;43.57
550;BME280;20066;48.764;9.176;2022-07-17T00:28:15;99007.31;;;20.85;42.98
550;BME280;20066;48.764;9.176;2022-07-17T00:30:43;98996.97;;;21.47;42.61
550;BME280;20066;48.764;9.176;2022-07-17T00:33:11;98991.28;;;21.41;42.59
550;BME280;20066;48.764;9.176;2022-07-17T00:35:41;98992.97;;;21.23;43.16
550;BME280;20066;48.764;9.176;2022-07-17T00:38:10;98995.16;;;20.57;43.86
550;BME280;20066;48.764;9.176;2022-07-17T00:40:37;98993.53;;;21.18;43.48
550;BME280;20066;48.764;9.176;2022-07-17T00:43:05;98994.50;;;20.82;43.48
550;BME280;20066;48.764;9.176;2022-07-17T00:45:33;98993.19;;;20.42;43.98
550;BME280;20066;48.764;9.176;2022-07-17T00:48:03;98995.19;;;20.86;43.55
550;BME280;20066;48.764;9.176;2022-07-17T00:50:34;98996.56;;;20.78;43.55
550;BME280;20066;48.764;9.176;2022-07-17T00:53:05;98992.44;;;20.86;44.08
550;BME280;20066;48.764;9.176;2022-07-17T00:55:33;98990.03;;;20.59;43.60
550;BME280;20066;48.764;9.176;2022-07-17T00:58:12;98991.06;;;20.49;44.11
550;BME280;20066;48.764;9.176;2022-07-17T01:00:44;98998.44;;;20.20;44.80
550;BME280;20066;48.764;9.176;2022-07-17T01:03:13;98996.56;;;20.17;45.28
550;BME280;20066;48.764;9.176;2022-07-17T01:05:41;98997.22;;;20.53;44.11
550;BME280;20066;48.764;9.176;2022-07-17T01:08:10;98991.66;;;20.57;43.84
550;BME280;20066;48.764;9.176;2022-07-17T01:10:40;98989.75;;;20.70;44.33
550;BME280;20066;48.764;9.176;2022-07-17T01:13:10;99000.38;;;20.81;44.45
550;BME280;20066;48.764;9.176;2022-07-17T01:15:40;99003.47;;;20.54;43.84
550;BME280;20066;48.764;9.176;2022-07-17T01:18:09;99005.97;;;20.16;45.60
550;BME280;20066;48.764;9.176;2022-07-17T01:20:40;99001.25;;;20.49;45.02
550;BME280;20066;48.764;9.176;2022-07-17T01:23:10;99002.28;;;20.55;43.79
550;BME280;20066;48.764;9.176;2022-07-17T01:25:38;99003.50;;;20.66;44.56
550;BME280;20066;48.764;9.176;2022-07-17T01:28:08;99006.09;;;20.57;44.26
550;BME280;20066;48.764;9.176;2022-07-17T01:30:36;98999.78;;;20.28;44.92
550;BME280;20066;48.764;9.176;2022-07-17T01:33:04;99001.25;;;19.84;45.78
550;BME280;20066;48.764;9.176;2022-07-17T01:35:33;99000.56;;;20.28;44.66
550;BME280;20066;48.764;9.176;2022-07-17T01:38:01;99002.94;;;20.26;45.30
550;BME280;20066;48.764;9.176;2022-07-17T01:40:31;99000.16;;;20.75;44.28
550;BME280;20066;48.764;9.176;2022-07-17T01:42:59;99005.97;;;20.77;44.25
550;BME280;20066;48.764;9.176;2022-07-17T01:45:27;99003.47;;;20.05;45.46
550;BME280;20066;48.764;9.176;2022-07-17T01:47:56;99007.59;;;19.61;46.53
550;BME280;20066;48.764;9.176;2022-07-17T01:50:24;99013.56;;;20.24;45.92
550;BME280;20066;48.764;9.176;2022-07-17T01:52:51;99016.53;;;20.46;44.73
550;BME280;20066;48.764;9.176;2022-07-17T01:55:20;99008.56;;;20.35;44.56
550;BME280;20066;48.764;9.176;2022-07-17T01:57:49;99011.59;;;20.09;45.92
550;BME280;20066;48.764;9.176;2022-07-17T02:00:17;99009.69;;;19.89;45.83
550;BME280;20066;48.764;9.176;2022-07-17T02:02:46;99014.75;;;20.07;45.52
550;BME280;20066;48.764;9.176;2022-07-17T02:05:14;99008.69;;;20.32;45.59
550;BME280;20066;48.764;9.176;2022-07-17T02:07:42;99009.50;;;20.45;45.84
550;BME280;20066;48.764;9.176;2022-07-17T02:10:11;99008.16;;;20.05;45.51
550;BME280;20066;48.764;9.176;2022-07-17T02:12:41;99006.72;;;20.16;45.33
550;BME280;20066;48.764;9.176;2022-07-17T02:15:11;99003.41;;;20.25;44.98
550;BME280;20066;48.764;9.176;2022-07-17T02:17:40;99003.75;;;19.94;45.37
550;BME280;20066;48.764;9.176;2022-07-17T02:20:09;99004.31;;;20.18;45.48
550;BME280;20066;48.764;9.176;2022-07-17T02:22:38;98999.78;;;20.12;45.34
550;BME280;20066;48.764;9.176;2022-07-17T02:25:07;99007.91;;;19.83;45.96
550;BME280;20066;48.764;9.176;2022-07-17T02:27:35;98990.50;;;19.77;46.21
550;BME280;20066;48.764;9.176;2022-07-17T02:30:04;98986.13;;;19.95;46.06
550;BME280;20066;48.764;9.176;2022-07-17T02:32:34;98990.34;;;20.00;46.42
550;BME280;20066;48.764;9.176;2022-07-17T02:35:02;98981.44;;;19.80;46.00
550;BME280;20066;48.764;9.176;2022-07-17T02:37:30;98987.97;;;19.66;46.88
550;BME280;20066;48.764;9.176;2022-07-17T02:39:58;98992.66;;;19.30;47.18
550;BME280;20066;48.764;9.176;2022-07-17T02:42:26;98993.56;;;19.79;46.79
550;BME280;20066;48.764;9.176;2022-07-17T02:44:55;98994.22;;;19.67;46.63
550;BME280;20066;48.764;9.176;2022-07-17T02:47:24;98996.25;;;19.62;46.51
550;BME280;20066;48.764;9.176;2022-07-17T02:49:53;98988.84;;;19.63;46.64
550;BME280;20066;48.764;9.176;2022-07-17T02:52:21;98993.72;;;19.88;46.77
550;BME280;20066;48.764;9.176;2022-07-17T02:54:50;98991.59;;;19.79;46.42
550;BME280;20066;48.764;9.176;2022-07-17T02:57:18;98982.84;;;19.52;47.13
550;BME280;20066;48.764;9.176;2022-07-17T02:59:46;98984.94;;;19.08;47.85
550;BME280;20066;48.764;9.176;2022-07-17T03:02:14;98988.72;;;18.52;49.40
550;BME280;20066;48.764;9.176;2022-07-17T03:04:42;98994.44;;;19.00;48.26
550;BME280;20066;48.764;9.176;2022-07-17T03:07:11;98988.00;;;19.10;47.87
550;BME280;20066;48.764;9.176;2022-07-17T03:09:39;98985.94;;;19.34;47.51
550;BME280;20066;48.764;9.176;2022-07-17T03:12:06;98984.47;;;19.66;46.72
550;BME280;20066;48.764;9.176;2022-07-17T03:14:34;98991.91;;;19.29;47.46
550;BME280;20066;48.764;9.176;2022-07-17T03:17:02;98983.22;;;18.75;48.50
550;BME280;20066;48.764;9.176;2022-07-17T03:19:30;98985.16;;;18.74;48.72
550;BME280;20066;48.764;9.176;2022-07-17T03:21:58;98977.59;;;18.85;48.66
550;BME280;20066;48.764;9.176;2022-07-17T03:24:28;98977.72;;;18.98;48.20
550;BME280;20066;48.764;9.176;2022-07-17T03:26:56;98972.81;;;19.29;48.14
550;BME280;20066;48.764;9.176;2022-07-17T03:29:23;98971.63;;;19.10;47.75
550;BME280;20066;48.764;9.176;2022-07-17T03:31:51;98972.91;;;19.42;47.75
550;BME280;20066;48.764;9.176;2022-07-17T03:34:19;98971.16;;;19.15;47.92
550;BME280;20066;48.764;9.176;2022-07-17T03:36:47;98980.75;;;18.61;49.16
550;BME280;20066;48.764;9.176;2022-07-17T03:39:14;98972.84;;;19.09;48.20
550;BME280;20066;48.764;9.176;2022-07-17T03:41:44;98979.41;;;18.02;49.59
550;BME280;20066;48.764;9.176;2022-07-17T03:44:11;98981.91;;;18.83;48.93
550;BME280;20066;48.764;9.176;2022-07-17T03:46:40;98985.81;;;18.82;48.79
550;BME280;20066;48.764;9.176;2022-07-17T03:49:07;98984.16;;;19.08;48.46
550;BME280;20066;48.764;9.176;2022-07-17T03:51:36;98981.34;;;19.31;47.65
550;BME280;20066;48.764;9.176;2022-07-17T03:54:04;98984.28;;;19.20;48.27
550;BME280;20066;48.764;9.176;2022-07-17T03:56:32;98990.19;;;19.35;47.65
550;BME280;20066;48.764;9.176;2022-07-17T03:59:01;98989.56;;;18.68;49.05
550;BME280;20066;48.764;9.176;2022-07-17T04:01:29;98996.03;;;18.98;48.67
550;BME280;20066;48.764;9.176;2022-07-17T04:03:57;98996.16;;;19.30;47.44
550;BME280;20066;48.764;9.176;2022-07-17T04:06:25;98997.75;;;18.68;48.74
550;BME280;20066;48.764;9.176;2022-07-17T04:08:53;99005.06;;;18.95;48.80
550;BME280;20066;48.764;9.176;2022-07-17T04:11:20;99002.47;;;18.88;48.48
550;BME280;20066;48.764;9.176;2022-07-17T04:13:48;99003.47;;;19.17;47.95
550;BME280;20066;48.764;9.176;2022-07-17T04:16:17;99005.34;;;19.00;48.30
550;BME280;20066;48.764;9.176;2022-07-17T04:18:45;99005.84;;;18.72;48.86
550;BME280;20066;48.764;9.176;2022-07-17T04:21:13;99010.53;;;18.71;49.96
550;BME280;20066;48.764;9.176;2022-07-17T04:23:41;99006.25;;;19.13;48.30
550;BME280;20066;48.764;9.176;2022-07-17T04:26:09;99013.59;;;19.16;48.83
550;BME280;20066;48.764;9.176;2022-07-17T04:28:37;99008.72;;;19.08;48.85
550;BME280;20066;48.764;9.176;2022-07-17T04:31:05;99016.88;;;19.28;48.86
550;BME280;20066;48.764;9.176;2022-07-17T04:33:34;99011.16;;;19.22;48.42
550;BME280;20066;48.764;9.176;2022-07-17T04:36:03;99006.97;;;18.55;49.57
550;BME280;20066;48.764;9.176;2022-07-17T04:38:31;99004.00;;;18.89;49.07
550;BME280;20066;48.764;9.176;2022-07-17T04:40:58;99010.63;;;19.27;47.77
550;BME280;20066;48.764;9.176;2022-07-17T04:43:26;99004.41;;;19.27;47.43
550;BME280;20066;48.764;9.176;2022-07-17T04:45:54;99017.16;;;19.13;47.82
550;BME280;20066;48.764;9.176;2022-07-17T04:48:22;99010.03;;;19.19;47.93
550;BME280;20066;48.764;9.176;2022-07-17T04:50:51;99019.81;;;18.97;48.87
550;BME280;20066;48.764;9.176;2022-07-17T04:53:18;99008.16;;;19.52;47.65
550;BME280;20066;48.764;9.176;2022-07-17T04:55:49;99008.06;;;19.76;46.60
550;BME280;20066;48.764;9.176;2022-07-17T04:58:17;99018.09;;;19.62;46.99
550;BME280;20066;48.764;9.176;2022-07-17T05:00:46;99014.97;;;19.80;46.63
550;BME280;20066;48.764;9.176;2022-07-17T05:03:14;99015.13;;;19.73;46.78
550;BME280;20066;48.764;9.176;2022-07-17T05:05:41;99012.91;;;19.68;47.42
550;BME280;20066;48.764;9.176;2022-07-17T05:08:11;99015.28;;;20.02;46.47
550;BME280;20066;48.764;9.176;2022-07-17T05:10:38;99025.75;;;20.04;46.48
550;BME280;20066;48.764;9.176;2022-07-17T05:13:06;99011.75;;;19.85;46.71
550;BME280;20066;48.764;9.176;2022-07-17T05:15:34;99012.44;;;19.89;46.01
550;BME280;20066;48.764;9.176;2022-07-17T05:18:06;99014.38;;;20.37;45.96
550;BME280;20066;48.764;9.176;2022-07-17T05:20:34;99019.75;;;20.57;45.59
550;BME280;20066;48.764;9.176;2022-07-17T05:23:02;99022.75;;;20.63;45.50
550;BME280;20066;48.764;9.176;2022-07-17T05:25:32;99018.69;;;20.84;44.93
550;BME280;20066;48.764;9.176;2022-07-17T05:27:59;99020.00;;;20.79;45.21
550;BME280;20066;48.764;9.176;2022-07-17T05:30:28;99019.34;;;20.59;44.91
550;BME280;20066;48.764;9.176;2022-07-17T05:32:56;99019.63;;;20.32;45.62
550;BME280;20066;48.764;9.176;2022-07-17T05:35:24;99025.22;;;20.57;45.79
550;BME280;20066;48.764;9.176;2022-07-17T05:37:51;99022.34;;;19.99;46.98
550;BME280;20066;48.764;9.176;2022-07-17T05:40:19;99026.19;;;20.02;47.59
550;BME280;20066;48.764;9.176;2022-07-17T05:42:48;99020.47;;;20.13;47.07
550;BME280;20066;48.764;9.176;2022-07-17T05:45:16;99018.09;;;20.47;45.81
550;BME280;20066;48.764;9.176;2022-07-17T05:47:44;99015.16;;;19.89;46.69
550;BME280;20066;48.764;9.176;2022-07-17T05:50:11;99015.75;;;20.29;46.04
550;BME280;20066;48.764;9.176;2022-07-17T05:52:39;99015.94;;;20.55;45.19
550;BME280;20066;48.764;9.176;2022-07-17T05:55:07;99022.28;;;20.81;44.69
550;BME280;20066;48.764;9.176;2022-07-17T05:57:35;99028.13;;;20.66;44.78
550;BME280;20066;48.764;9.176;2022-07-17T06:00:06;99020.72;;;19.86;46.73
550;BME280;20066;48.764;9.176;2022-07-17T06:02:34;99026.69;;;20.62;46.80
550;BME280;20066;48.764;9.176;2022-07-17T06:05:02;99027.41;;;21.07;45.35
550;BME280;20066;48.764;9.176;2022-07-17T06:07:30;99028.59;;;20.49;45.39
550;BME280;20066;48.764;9.176;2022-07-17T06:09:59;99027.13;;;20.89;44.63
550;BME280;20066;48.764;9.176;2022-07-17T06:12:27;99035.41;;;21.43;44.98
550;BME280;20066;48.764;9.176;2022-07-17T06:14:55;99035.00;;;20.87;44.60
550;BME280;20066;48.764;9.176;2022-07-17T06:17:24;99029.53;;;20.87;44.92
550;BME280;20066;48.764;9.176;2022-07-17T06:19:52;99032.75;;;20.05;47.77
550;BME280;20066;48.764;9.176;2022-07-17T06:22:20;99030.53;;;20.64;46.83
550;BME280;20066;48.764;9.176;2022-07-17T06:24:48;99033.59;;;20.66;46.36
550;BME280;20066;48.764;9.176;2022-07-17T06:27:16;99035.19;;;21.38;45.76
550;BME280;20066;48.764;9.176;2022-07-17T06:29:43;99039.94;;;21.75;44.47
550;BME280;20066;48.764;9.176;2022-07-17T06:32:19;99042.72;;;21.05;44.76
550;BME280;20066;48.764;9.176;2022-07-17T06:34:48;99041.13;;;21.49;44.06
550;BME280;20066;48.764;9.176;2022-07-17T06:37:16;99043.81;;;21.24;44.42
550;BME280;20066;48.764;9.176;2022-07-17T06:39:44;99048.00;;;19.70;47.96
550;BME280;20066;48.764;9.176;2022-07-17T06:42:12;99043.88;;;21.62;44.95
550;BME280;20066;48.764;9.176;2022-07-17T06:44:39;99040.69;;;21.22;44.36
550;BME280;20066;48.764;9.176;2022-07-17T06:47:07;99039.06;;;19.85;47.65
550;BME280;20066;48.764;9.176;2022-07-17T06:49:35;99043.09;;;20.13;47.12
550;BME280;20066;48.764;9.176;2022-07-17T06:52:04;99042.97;;;21.10;45.40
550;BME280;20066;48.764;9.176;2022-07-17T06:54:32;99043.16;;;20.58;46.13
550;BME280;20066;48.764;9.176;2022-07-17T06:57:00;99046.69;;;20.88;46.15
550;BME280;20066;48.764;9.176;2022-07-17T06:59:28;99055.28;;;21.73;43.20
550;BME280;20066;48.764;9.176;2022-07-17T07:01:56;99051.09;;;21.68;44.19
550;BME280;20066;48.764;9.176;2022-07-17T07:04:24;99050.19;;;21.33;44.81
550;BME280;20066;48.764;9.176;2022-07-17T07:06:52;99056.72;;;21.65;44.68
550;BME280;20066;48.764;9.176;2022-07-17T07:09:21;99051.88;;;22.32;42.03
550;BME280;20066;48.764;9.176;2022-07-17T07:11:48;99061.69;;;21.41;43.80
550;BME280;20066;48.764;9.176;2022-07-17T07:14:16;99055.31;;;22.11;43.12
550;BME280;20066;48.764;9.176;2022-07-17T07:16:44;99051.47;;;21.96;42.65
550;BME280;20066;48.764;9.176;2022-07-17T07:19:12;99059.63;;;21.45;43.64
550;BME280;20066;48.764;9.176;2022-07-17T07:21:40;99062.13;;;22.19;42.33
550;BME280;20066;48.764;9.176;2022-07-17T07:24:08;99056.59;;;21.94;42.66
550;BME280;20066;48.764;9.176;2022-07-17T07:26:37;99064.25;;;22.49;41.56
550;BME280;20066;48.764;9.176;2022-07-17T07:29:05;99056.09;;;21.32;43.22
550;BME280;20066;48.764;9.176;2022-07-17T07:31:38;99061.13;;;22.60;40.92
550;BME280;20066;48.764;9.176;2022-07-17T07:34:06;99060.50;;;22.56;40.39
550;BME280;20066;48.764;9.176;2022-07-17T07:36:34;99062.72;;;22.95;40.85
550;BME280;20066;48.764;9.176;2022-07-17T07:39:02;99063.47;;;21.47;42.44
550;BME280;20066;48.764;9.176;2022-07-17T07:41:30;99054.22;;;22.68;40.04
550;BME280;20066;48.764;9.176;2022-07-17T07:43:59;99058.53;;;22.91;39.26
550;BME280;20066;48.764;9.176;2022-07-17T07:46:27;99061.69;;;24.56;37.55
550;BME280;20066;48.764;9.176;2022-07-17T07:48:55;99060.03;;;25.23;36.35
550;BME280;20066;48.764;9.176;2022-07-17T07:51:23;99057.19;;;23.92;36.77
550;BME280;20066;48.764;9.176;2022-07-17T07:54:11;99062.63;;;23.73;37.32
550;BME280;20066;48.764;9.176;2022-07-17T07:56:39;99056.66;;;23.75;38.89
550;BME280;20066;48.764;9.176;2022-07-17T07:59:08;99062.97;;;23.32;37.71
550;BME280;20066;48.764;9.176;2022-07-17T08:01:36;99069.63;;;23.65;36.70
550;BME280;20066;48.764;9.176;2022-07-17T08:04:04;99061.50;;;23.62;37.36
550;BME280;20066;48.764;9.176;2022-07-17T08:06:32;99071.16;;;23.75;36.79
550;BME280;20066;48.764;9.176;2022-07-17T08:09:00;99069.88;;;23.89;37.04
550;BME280;20066;48.764;9.176;2022-07-17T08:11:28;99076.66;;;23.75;36.37
550;BME280;20066;48.764;9.176;2022-07-17T08:13:56;99081.53;;;24.42;35.53
550;BME280;20066;48.764;9.176;2022-07-17T08:16:34;99069.53;;;25.04;34.17
550;BME280;20066;48.764;9.176;2022-07-17T08:19:02;99079.31;;;26.58;32.83
550;BME280;20066;48.764;9.176;2022-07-17T08:21:34;99079.75;;;26.09;37.52
550;BME280;20066;48.764;9.176;2022-07-17T08:24:02;99073.97;;;24.92;33.88
550;BME280;20066;48.764;9.176;2022-07-17T08:26:31;99077.06;;;25.82;32.82
550;BME280;20066;48.764;9.176;2022-07-17T08:28:59;99074.53;;;26.11;34.91
550;BME280;20066;48.764;9.176;2022-07-17T08:31:26;99077.94;;;26.54;32.36
550;BME280;20066;48.764;9.176;2022-07-17T08:33:56;99074.72;;;27.03;31.47
550;BME280;20066;48.764;9.176;2022-07-17T08:36:24;99074.19;;;26.18;31.99
550;BME280;20066;48.764;9.176;2022-07-17T08:38:52;99070.94;;;28.03;30.53
550;BME280;20066;48.764;9.176;2022-07-17T08:41:20;99066.53;;;24.34;34.82
550;BME280;20066;48.764;9.176;2022-07-17T08:43:49;99070.00;;;26.23;32.97
550;BME280;20066;48.764;9.176;2022-07-17T08:46:18;99065.94;;;26.09;32.42
550;BME280;20066;48.764;9.176;2022-07-17T08:48:49;99066.25;;;26.68;30.95
550;BME280;20066;48.764;9.176;2022-07-17T08:51:19;99072.97;;;26.43;32.64
550;BME280;20066;48.764;9.176;2022-07-17T08:53:47;99079.00;;;28.21;33.76
550;BME280;20066;48.764;9.176;2022-07-17T08:56:14;99077.63;;;28.46;27.86
550;BME280;20066;48.764;9.176;2022-07-17T08:58:42;99074.03;;;26.69;31.53
550;BME280;20066;48.764;9.176;2022-07-17T09:01:10;99071.91;;;26.64;30.76
550;BME280;20066;48.764;9.176;2022-07-17T09:03:39;99073.69;;;29.71;29.28
550;BME280;20066;48.764;9.176;2022-07-17T09:06:20;99069.47;;;29.24;27.56
550;BME280;20066;48.764;9.176;2022-07-17T09:08:48;99077.78;;;29.24;29.20
550;BME280;20066;48.764;9.176;2022-07-17T09:11:16;99075.66;;;29.13;26.82
550;BME280;20066;48.764;9.176;2022-07-17T09:13:45;99073.72;;;28.99;27.86
550;BME280;20066;48.764;9.176;2022-07-17T09:16:13;99068.97;;;27.74;29.66
550;BME280;20066;48.764;9.176;2022-07-17T09:18:43;99071.63;;;26.86;29.37
550;BME280;20066;48.764;9.176;2022-07-17T09:21:17;99068.59;;;25.94;30.76
550;BME280;20066;48.764;9.176;2022-07-17T09:23:57;99078.34;;;28.12;28.41
550;BME280;20066;48.764;9.176;2022-07-17T09:26:25;99074.22;;;27.28;28.70
550;BME280;20066;48.764;9.176;2022-07-17T09:28:53;99065.47;;;25.68;30.52
550;BME280;20066;48.764;9.176;2022-07-17T09:31:25;99077.66;;;27.67;28.16
550;BME280;20066;48.764;9.176;2022-07-17T09:33:54;99073.03;;;27.93;28.93
550;BME280;20066;48.764;9.176;2022-07-17T09:36:22;99075.88;;;28.49;31.36
550;BME280;20066;48.764;9.176;2022-07-17T09:38:54;99077.47;;;29.16;26.71
550;BME280;20066;48.764;9.176;2022-07-17T09:41:24;99066.78;;;29.92;27.26
550;BME280;20066;48.764;9.176;2022-07-17T09:43:54;99071.22;;;29.47;26.02
550;BME280;20066;48.764;9.176;2022-07-17T09:46:28;99059.28;;;30.04;27.91
550;BME280;20066;48.764;9.176;2022-07-17T09:48:59;99056.78;;;30.48;29.98
550;BME280;20066;48.764;9.176;2022-07-17T09:51:29;99060.56;;;29.71;29.04
550;BME280;20066;48.764;9.176;2022-07-17T09:54:02;99057.38;;;28.05;31.16
550;BME280;20066;48.764;9.176;2022-07-17T09:56:31;99053.50;;;30.50;23.80
550;BME280;20066;48.764;9.176;2022-07-17T09:59:01;99063.53;;;33.15;21.67
550;BME280;20066;48.764;9.176;2022-07-17T10:01:30;99055.28;;;32.12;27.98
550;BME280;20066;48.764;9.176;2022-07-17T10:03:59;99058.63;;;31.94;22.23
550;BME280;20066;48.764;9.176;2022-07-17T10:06:28;99058.63;;;30.63;22.55
550;BME280;20066;48.764;9.176;2022-07-17T10:08:59;99062.31;;;34.54;20.86
550;BME280;20066;48.764;9.176;2022-07-17T10:11:28;99069.84;;;33.56;19.46
550;BME280;20066;48.764;9.176;2022-07-17T10:14:02;99057.03;;;33.01;22.06
550;BME280;20066;48.764;9.176;2022-07-17T10:16:33;99062.38;;;33.35;23.86
550;BME280;20066;48.764;9.176;2022-07-17T10:19:02;99057.34;;;31.90;24.74
550;BME280;20066;48.764;9.176;2022-07-17T10:21:32;99051.16;;;30.32;23.27
550;BME280;20066;48.764;9.176;2022-07-17T10:24:09;99048.38;;;30.96;20.71
550;BME280;20066;48.764;9.176;2022-07-17T10:26:39;99035.72;;;29.88;23.71
550;BME280;20066;48.764;9.176;2022-07-17T10:29:08;99046.69;;;29.14;25.34
550;BME280;20066;48.764;9.176;2022-07-17T10:31:53;99051.44;;;28.12;25.70
550;BME280;20066;48.764;9.176;2022-07-17T10:34:36;99047.81;;;28.82;24.37
550;BME280;20066;48.764;9.176;2022-07-17T10:37:17;99039.41;;;29.74;26.31
550;BME280;20066;48.764;9.176;2022-07-17T10:42:55;99040.28;;;30.82;24.33
550;BME280;20066;48.764;9.176;2022-07-17T10:45:29;99036.63;;;31.74;24.71
550;BME280;20066;48.764;9.176;2022-07-17T10:48:01;99032.44;;;33.00;21.13
550;BME280;20066;48.764;9.176;2022-07-17T10:50:32;99034.84;;;32.79;19.68
550;BME280;20066;48.764;9.176;2022-07-17T10:53:12;99028.41;;;32.95;22.83
550;BME280;20066;48.764;9.176;2022-07-17T10:55:54;99025.47;;;34.31;21.61
550;BME280;20066;48.764;9.176;2022-07-17T10:58:24;99021.34;;;34.38;19.54
550;BME280;20066;48.764;9.176;2022-07-17T11:01:02;99021.97;;;35.25;18.72
550;BME280;20066;48.764;9.176;2022-07-17T11:03:31;99027.69;;;34.14;18.20
550;BME280;20066;48.764;9.176;2022-07-17T11:06:07;99028.88;;;33.40;18.68
550;BME280;20066;48.764;9.176;2022-07-17T11:08:39;99021.91;;;32.01;20.02
550;BME280;20066;48.764;9.176;2022-07-17T11:11:09;99032.66;;;32.55;19.02
550;BME280;20066;48.764;9.176;2022-07-17T11:13:45;99026.59;;;33.39;18.18
550;BME280;20066;48.764;9.176;2022-07-17T11:16:24;99018.00;;;36.44;15.28
550;BME280;20066;48.764;9.176;2022-07-17T11:18:54;99016.50;;;35.77;15.17
550;BME280;20066;48.764;9.176;2022-07-17T11:21:22;99015.88;;;34.27;16.93
550;BME280;20066;48.764;9.176;2022-07-17T11:23:50;99016.66;;;32.61;18.22
550;BME280;20066;48.764;9.176;2022-07-17T11:26:20;99005.25;;;34.20;16.90
550;BME280;20066;48.764;9.176;2022-07-17T11:28:49;98999.75;;;33.60;18.58
550;BME280;20066;48.764;9.176;2022-07-17T11:31:27;99011.50;;;35.06;16.64
550;BME280;20066;48.764;9.176;2022-07-17T11:33:56;99013.75;;;36.90;15.31
550;BME280;20066;48.764;9.176;2022-07-17T11:36:27;99009.06;;;39.50;13.63
550;BME280;20066;48.764;9.176;2022-07-17T11:38:57;99015.38;;;42.68;13.06
550;BME280;20066;48.764;9.176;2022-07-17T11:41:36;99008.50;;;37.91;14.42
550;BME280;20066;48.764;9.176;2022-07-17T11:44:05;99012.78;;;38.20;14.86
550;BME280;20066;48.764;9.176;2022-07-17T11:46:34;99013.06;;;35.71;16.26
550;BME280;20066;48.764;9.176;2022-07-17T11:49:02;99017.69;;;37.08;17.00
550;BME280;20066;48.764;9.176;2022-07-17T11:51:38;99007.69;;;43.05;10.96
550;BME280;20066;48.764;9.176;2022-07-17T11:54:08;99014.47;;;37.25;14.91
550;BME280;20066;48.764;9.176;2022-07-17T11:56:37;99006.28;;;35.93;15.49
550;BME280;20066;48.764;9.176;2022-07-17T11:59:06;99012.13;;;40.78;12.31
550;BME280;20066;48.764;9.176;2022-07-17T12:01:39;99010.81;;;41.44;12.35
550;BME280;20066;48.764;9.176;2022-07-17T12:04:08;99003.59;;;36.14;17.65
550;BME280;20066;48.764;9.176;2022-07-17T12:06:43;99002.06;;;36.39;15.91
550;BME280;20066;48.764;9.176;2022-07-17T12:09:12;99007.50;;;38.17;14.16
550;BME280;20066;48.764;9.176;2022-07-17T12:11:49;99003.63;;;39.75;12.37
550;BME280;20066;48.764;9.176;2022-07-17T12:14:17;99001.28;;;41.07;12.77
550;BME280;20066;48.764;9.176;2022-07-17T12:16:45;99002.38;;;41.61;10.98
550;BME280;20066;48.764;9.176;2022-07-17T12:19:16;98998.06;;;38.78;13.47
550;BME280;20066;48.764;9.176;2022-07-17T12:21:54;99000.84;;;41.85;11.88
550;BME280;20066;48.764;9.176;2022-07-17T12:24:25;98999.91;;;43.78;10.31
550;BME280;20066;48.764;9.176;2022-07-17T12:26:56;99001.31;;;47.56;9.56
550;BME280;20066;48.764;9.176;2022-07-17T12:29:26;98993.78;;;39.00;12.50
550;BME280;20066;48.764;9.176;2022-07-17T12:32:02;98993.94;;;41.96;10.79
550;BME280;20066;48.764;9.176;2022-07-17T12:34:30;98992.31;;;44.48;9.14
550;BME280;20066;48.764;9.176;2022-07-17T12:36:58;98992.28;;;38.99;11.93
550;BME280;20066;48.764;9.176;2022-07-17T12:39:26;98984.06;;;38.50;13.60
550;BME280;20066;48.764;9.176;2022-07-17T12:41:55;98984.63;;;40.54;12.34
550;BME280;20066;48.764;9.176;2022-07-17T12:44:24;98984.41;;;37.33;14.71
550;BME280;20066;48.764;9.176;2022-07-17T12:46:51;98982.97;;;40.83;11.95
550;BME280;20066;48.764;9.176;2022-07-17T12:49:19;98988.28;;;42.47;10.21
550;BME280;20066;48.764;9.176;2022-07-17T12:51:48;98992.69;;;44.83;10.28
550;BME280;20066;48.764;9.176;2022-07-17T12:54:15;98988.47;;;49.07;7.36
550;BME280;20066;48.764;9.176;2022-07-17T12:56:43;98986.44;;;44.65;9.83
550;BME280;20066;48.764;9.176;2022-07-17T12:59:12;98986.13;;;41.44;10.95
550;BME280;20066;48.764;9.176;2022-07-17T13:01:40;98988.44;;;45.34;8.98
550;BME280;20066;48.764;9.176;2022-07-17T13:04:08;98974.97;;;41.22;12.16
550;BME280;20066;48.764;9.176;2022-07-17T13:06:37;98980.84;;;35.78;15.94
550;BME280;20066;48.764;9.176;2022-07-17T13:09:05;98985.69;;;38.89;14.56
550;BME280;20066;48.764;9.176;2022-07-17T13:11:33;98977.34;;;38.53;13.24
550;BME280;20066;48.764;9.176;2022-07-17T13:14:01;98987.19;;;43.69;10.83
550;BME280;20066;48.764;9.176;2022-07-17T13:16:30;98991.69;;;43.92;10.11
550;BME280;20066;48.764;9.176;2022-07-17T13:19:00;98982.63;;;41.78;11.32
550;BME280;20066;48.764;9.176;2022-07-17T13:21:28;98977.06;;;44.43;9.62
550;BME280;20066;48.764;9.176;2022-07-17T13:23:56;98966.47;;;40.64;12.93
550;BME280;20066;48.764;9.176;2022-07-17T13:26:23;98974.22;;;42.67;11.27
550;BME280;20066;48.764;9.176;2022-07-17T13:28:51;98970.13;;;41.15;12.15
550;BME280;20066;48.764;9.176;2022-07-17T13:31:20;98970.25;;;36.84;13.66
550;BME280;20066;48.764;9.176;2022-07-17T13:33:49;98966.22;;;39.75;12.76
550;BME280;20066;48.764;9.176;2022-07-17T13:36:16;98969.75;;;40.93;11.40